createdAt,value
2022-10-11T00:00:11.363Z,99.90
2022-10-11T00:02:14.202Z,99.90
2022-10-11T00:04:16.576Z,99.90
2022-10-11T00:06:21.441Z,99.90
2022-10-11T00:08:23.850Z,99.90
2022-10-11T00:10:26.447Z,99.90
2022-10-11T00:12:28.762Z,99.90
2022-10-11T00:14:31.139Z,99.90
2022-10-11T00:16:33.835Z,99.90
2022-10-11T00:18:36.222Z,99.90
2022-10-11T00:20:38.469Z,99.90
2022-10-11T00:22:44.078Z,99.90
2022-10-11T00:24:46.389Z,99.90
2022-10-11T00:26:48.673Z,99.90
2022-10-11T00:28:53.079Z,99.90
2022-10-11T00:30:55.569Z,99.90
2022-10-11T00:32:58.102Z,99.90
2022-10-11T00:35:04.795Z,99.90
2022-10-11T00:37:07.066Z,99.90
2022-10-11T00:39:14.322Z,99.90
2022-10-11T00:41:17.591Z,99.90
2022-10-11T00:43:22.670Z,99.90
2022-10-11T00:45:54.977Z,99.90
2022-10-11T00:48:02.618Z,99.90
2022-10-11T00:50:09.376Z,99.90
2022-10-11T00:52:18.015Z,99.90
2022-10-11T00:54:27.341Z,99.90
2022-10-11T00:56:33.301Z,99.90
2022-10-11T00:58:37.527Z,99.90
2022-10-11T01:00:39.858Z,99.90
2022-10-11T01:02:43.862Z,99.90
2022-10-11T01:04:46.429Z,99.90
2022-10-11T01:06:50.208Z,99.90
2022-10-11T01:08:54.347Z,99.90
2022-10-11T01:10:59.634Z,99.90
2022-10-11T01:13:09.063Z,99.90
2022-10-11T01:15:21.213Z,99.90
2022-10-11T01:17:34.354Z,99.90
2022-10-11T01:19:52.680Z,99.90
2022-10-11T01:22:06.583Z,99.90
2022-10-11T01:24:25.701Z,99.90
2022-10-11T01:26:57.570Z,99.90
2022-10-11T01:29:09.814Z,99.90
2022-10-11T01:31:21.720Z,99.90
2022-10-11T01:33:30.030Z,99.90
2022-10-11T01:35:39.276Z,99.90
2022-10-11T01:37:46.316Z,99.90
2022-10-11T01:39:52.636Z,99.90
2022-10-11T01:41:57.791Z,99.90
2022-10-11T01:44:01.906Z,99.90
2022-10-11T01:46:05.613Z,99.90
2022-10-11T01:48:13.439Z,99.90
2022-10-11T01:50:35.698Z,99.90
2022-10-11T01:52:44.912Z,99.90
2022-10-11T01:55:10.565Z,99.90
2022-10-11T01:57:43.544Z,99.90
2022-10-11T01:59:57.412Z,99.90
2022-10-11T02:02:09.785Z,99.90
2022-10-11T02:04:19.172Z,99.90
2022-10-11T02:06:29.018Z,99.90
2022-10-11T02:08:37.174Z,99.90
2022-10-11T02:10:44.854Z,99.90
2022-10-11T02:12:54.033Z,99.90
2022-10-11T02:14:58.179Z,99.90
2022-10-11T02:17:04.622Z,99.90
2022-10-11T02:19:08.205Z,99.90
2022-10-11T02:21:16.515Z,99.90
2022-10-11T02:23:28.005Z,99.90
2022-10-11T02:25:35.433Z,99.90
2022-10-11T02:27:40.683Z,99.90
2022-10-11T02:29:46.484Z,99.90
2022-10-11T02:31:49.999Z,99.90
2022-10-11T02:34:00.125Z,99.90
2022-10-11T02:36:10.261Z,99.90
2022-10-11T02:38:21.400Z,99.90
2022-10-11T02:40:29.147Z,99.90
2022-10-11T02:42:37.237Z,99.90
2022-10-11T02:44:44.202Z,99.90
2022-10-11T02:46:49.038Z,99.90
2022-10-11T02:48:52.127Z,99.90
2022-10-11T02:50:56.233Z,99.90
2022-10-11T02:52:58.462Z,99.90
2022-10-11T02:55:04.137Z,99.90
2022-10-11T02:57:06.572Z,99.90
2022-10-11T02:59:08.856Z,99.90
2022-10-11T03:01:11.270Z,99.90
2022-10-11T03:03:13.582Z,99.90
2022-10-11T03:05:16.854Z,99.90
2022-10-11T03:07:19.184Z,99.90
2022-10-11T03:09:21.568Z,99.90
2022-10-11T03:11:26.608Z,99.90
2022-10-11T03:13:28.879Z,99.90
2022-10-11T03:15:31.130Z,99.90
2022-10-11T03:17:37.374Z,99.90
2022-10-11T03:19:39.804Z,99.90
2022-10-11T03:21:42.014Z,99.90
2022-10-11T03:23:47.429Z,99.90
2022-10-11T03:25:49.906Z,99.90
2022-10-11T03:27:54.830Z,99.90
2022-10-11T03:29:57.956Z,99.90
2022-10-11T03:32:00.552Z,99.90
2022-10-11T03:34:05.434Z,99.90
2022-10-11T03:36:09.181Z,99.90
2022-10-11T03:38:13.147Z,99.90
2022-10-11T03:40:15.693Z,99.90
2022-10-11T03:42:17.970Z,99.90
2022-10-11T03:44:22.891Z,99.90
2022-10-11T03:46:25.332Z,99.90
2022-10-11T03:48:27.577Z,99.90
2022-10-11T03:50:30.264Z,99.90
2022-10-11T03:52:32.676Z,99.90
2022-10-11T03:54:34.932Z,99.90
2022-10-11T03:56:40.120Z,99.90
2022-10-11T03:58:42.582Z,99.90
2022-10-11T04:00:47.510Z,99.90
2022-10-11T04:02:50.572Z,99.90
2022-10-11T04:04:52.824Z,99.90
2022-10-11T04:06:55.943Z,99.90
2022-10-11T04:08:58.519Z,99.90
2022-10-11T04:11:00.857Z,99.90
2022-10-11T04:13:03.110Z,99.90
2022-10-11T04:15:07.088Z,99.90
2022-10-11T04:17:12.034Z,99.90
2022-10-11T04:19:14.589Z,99.90
2022-10-11T04:21:18.026Z,99.90
2022-10-11T04:23:20.268Z,99.90
2022-10-11T04:25:22.560Z,99.90
2022-10-11T04:27:26.887Z,99.90
2022-10-11T04:29:32.609Z,99.90
2022-10-11T04:31:35.379Z,99.90
2022-10-11T04:33:40.322Z,99.90
2022-10-11T04:35:42.716Z,99.90
2022-10-11T04:37:45.191Z,99.90
2022-10-11T04:39:47.489Z,99.90
2022-10-11T04:41:49.955Z,99.90
2022-10-11T04:43:52.262Z,99.90
2022-10-11T04:45:55.586Z,99.90
2022-10-11T04:47:58.234Z,99.90
2022-10-11T04:50:03.148Z,99.90
2022-10-11T04:52:08.069Z,99.90
2022-10-11T04:54:12.919Z,99.90
2022-10-11T04:56:18.243Z,99.90
2022-10-11T04:58:20.546Z,99.90
2022-10-11T05:00:22.983Z,99.90
2022-10-11T05:02:28.261Z,99.90
2022-10-11T05:04:30.713Z,99.90
2022-10-11T05:06:35.620Z,99.90
2022-10-11T05:08:40.316Z,99.90
2022-10-11T05:10:45.974Z,99.90
2022-10-11T05:12:48.298Z,99.90
2022-10-11T05:14:50.597Z,99.90
2022-10-11T05:16:52.904Z,99.90
2022-10-11T05:18:55.281Z,99.90
2022-10-11T05:21:01.094Z,99.90
2022-10-11T05:23:06.061Z,99.90
2022-10-11T05:25:11.624Z,99.90
2022-10-11T05:27:15.835Z,99.90
2022-10-11T05:29:18.062Z,99.90
2022-10-11T05:31:20.433Z,99.90
2022-10-11T05:33:22.886Z,99.90
2022-10-11T05:35:25.214Z,99.90
2022-10-11T05:37:27.634Z,99.90
2022-10-11T05:39:32.583Z,99.90
2022-10-11T05:41:34.997Z,99.90
2022-10-11T05:43:37.530Z,99.90
2022-10-11T05:45:41.491Z,99.90
2022-10-11T05:47:43.773Z,99.90
2022-10-11T05:49:45.980Z,99.90
2022-10-11T05:51:48.120Z,99.90
2022-10-11T05:53:50.588Z,99.90
2022-10-11T05:55:55.772Z,99.90
2022-10-11T05:57:58.172Z,99.90
2022-10-11T06:00:03.890Z,99.90
2022-10-11T06:02:06.393Z,99.90
2022-10-11T06:04:08.770Z,99.90
2022-10-11T06:06:11.168Z,99.90
2022-10-11T06:08:13.998Z,99.90
2022-10-11T06:10:18.067Z,99.90
2022-10-11T06:12:22.938Z,99.90
2022-10-11T06:14:26.155Z,99.90
2022-10-11T06:16:28.389Z,99.90
2022-10-11T06:18:31.553Z,99.90
2022-10-11T06:20:33.860Z,99.90
2022-10-11T06:22:36.434Z,99.90
2022-10-11T06:24:38.794Z,99.90
2022-10-11T06:26:41.082Z,99.90
2022-10-11T06:28:46.436Z,99.90
2022-10-11T06:30:48.700Z,99.90
2022-10-11T06:32:51.013Z,99.90
2022-10-11T06:34:53.234Z,99.90
2022-10-11T06:36:55.760Z,99.90
2022-10-11T06:39:00.993Z,99.90
2022-10-11T06:41:10.437Z,99.90
2022-10-11T06:43:13.209Z,99.90
2022-10-11T06:45:18.724Z,99.90
2022-10-11T06:47:21.005Z,99.90
2022-10-11T06:49:23.707Z,99.90
2022-10-11T06:51:26.152Z,99.90
2022-10-11T06:53:28.819Z,99.90
2022-10-11T06:55:32.639Z,99.90
2022-10-11T06:57:34.887Z,99.90
2022-10-11T06:59:37.167Z,99.90
2022-10-11T07:01:42.409Z,99.90
2022-10-11T07:03:46.014Z,99.90
2022-10-11T07:05:48.364Z,99.90
2022-10-11T07:07:50.605Z,99.90
2022-10-11T07:09:52.823Z,99.90
2022-10-11T07:11:56.792Z,99.90
2022-10-11T07:14:01.111Z,99.90
2022-10-11T07:16:03.875Z,99.90
2022-10-11T07:18:08.944Z,99.90
2022-10-11T07:20:12.411Z,99.90
2022-10-11T07:22:14.666Z,99.90
2022-10-11T07:24:16.965Z,99.90
2022-10-11T07:26:20.069Z,99.90
2022-10-11T07:28:22.768Z,99.90
2022-10-11T07:30:25.121Z,99.90
2022-10-11T07:32:27.631Z,99.90
2022-10-11T07:34:32.511Z,99.90
2022-10-11T07:36:35.263Z,99.90
2022-10-11T07:38:40.409Z,99.90
2022-10-11T07:40:47.802Z,99.90
2022-10-11T07:42:50.124Z,99.90
2022-10-11T07:44:52.486Z,99.90
2022-10-11T07:46:54.824Z,99.90
2022-10-11T07:48:57.226Z,99.90
2022-10-11T07:51:07.731Z,99.90
2022-10-11T07:53:10.186Z,99.90
2022-10-11T07:55:12.367Z,99.90
2022-10-11T07:57:15.552Z,99.90
2022-10-11T07:59:17.833Z,99.90
2022-10-11T08:01:20.682Z,99.90
2022-10-11T08:03:23.072Z,99.90
2022-10-11T08:05:25.290Z,99.90
2022-10-11T08:07:30.629Z,99.90
2022-10-11T08:09:33.290Z,99.90
2022-10-11T08:11:37.123Z,99.90
2022-10-11T08:13:40.195Z,99.90
2022-10-11T08:15:42.458Z,99.90
2022-10-11T08:17:44.808Z,99.90
2022-10-11T08:19:47.259Z,99.90
2022-10-11T08:21:49.580Z,99.90
2022-10-11T08:23:54.499Z,99.90
2022-10-11T08:25:58.360Z,99.90
2022-10-11T08:28:00.600Z,99.90
2022-10-11T08:30:03.661Z,99.90
2022-10-11T08:32:06.169Z,99.90
2022-10-11T08:34:08.524Z,99.90
2022-10-11T08:36:12.989Z,99.90
2022-10-11T08:38:16.626Z,99.90
2022-10-11T08:40:24.359Z,99.90
2022-10-11T08:42:35.604Z,99.90
2022-10-11T08:45:10.043Z,99.90
2022-10-11T08:47:19.536Z,99.90
2022-10-11T08:49:26.763Z,99.90
2022-10-11T08:51:32.253Z,99.90
2022-10-11T08:53:43.257Z,99.90
2022-10-11T08:55:52.276Z,99.90
2022-10-11T08:57:56.682Z,99.90
2022-10-11T09:00:01.345Z,99.90
2022-10-11T09:02:16.888Z,99.90
2022-10-11T09:04:19.310Z,99.90
2022-10-11T09:06:32.760Z,99.90
2022-10-11T09:08:47.034Z,99.90
2022-10-11T09:10:58.975Z,99.90
2022-10-11T09:13:15.330Z,99.90
2022-10-11T09:15:27.062Z,99.90
2022-10-11T09:17:44.418Z,99.90
2022-10-11T09:20:12.461Z,99.90
2022-10-11T09:22:22.732Z,99.90
2022-10-11T09:24:37.155Z,99.90
2022-10-11T09:26:51.859Z,99.90
2022-10-11T09:29:01.030Z,99.90
2022-10-11T09:31:04.198Z,99.90
2022-10-11T09:33:13.597Z,99.90
2022-10-11T09:35:18.605Z,99.90
2022-10-11T09:37:27.031Z,99.90
2022-10-11T09:39:32.386Z,99.90
2022-10-11T09:41:41.903Z,99.90
2022-10-11T09:43:51.104Z,99.90
2022-10-11T09:45:53.393Z,99.90
2022-10-11T09:48:01.775Z,99.90
2022-10-11T09:50:12.992Z,99.90
2022-10-11T09:52:17.024Z,99.90
2022-10-11T09:54:27.557Z,99.90
2022-10-11T09:56:40.130Z,99.90
2022-10-11T09:58:42.627Z,99.90
2022-10-11T10:00:57.565Z,99.90
2022-10-11T10:03:02.723Z,99.90
2022-10-11T10:05:21.149Z,99.90
2022-10-11T10:07:23.996Z,99.90
2022-10-11T10:09:30.246Z,99.90
2022-10-11T10:11:37.223Z,99.90
2022-10-11T10:13:49.970Z,99.90
2022-10-11T10:16:01.319Z,99.90
2022-10-11T10:18:06.116Z,99.90
2022-10-11T10:20:21.206Z,99.90
2022-10-11T10:22:28.025Z,99.90
2022-10-11T10:24:40.027Z,99.90
2022-10-11T10:26:42.245Z,99.90
2022-10-11T10:29:00.180Z,99.90
2022-10-11T10:31:05.276Z,99.90
2022-10-11T10:33:11.674Z,99.90
2022-10-11T10:35:26.073Z,99.50
2022-10-11T10:37:32.343Z,99.80
2022-10-11T10:39:40.967Z,98.10
2022-10-11T10:41:43.283Z,98.30
2022-10-11T10:43:52.363Z,98.10
2022-10-11T10:46:25.623Z,96.90
2022-10-11T10:49:01.975Z,96.00
2022-10-11T10:51:09.672Z,97.40
2022-10-11T10:53:24.073Z,97.00
2022-10-11T10:55:36.157Z,98.10
2022-10-11T10:57:47.566Z,99.10
2022-10-11T11:00:03.159Z,98.90
2022-10-11T11:02:39.268Z,98.80
2022-10-11T11:04:43.914Z,96.30
2022-10-11T11:06:51.127Z,96.50
2022-10-11T11:09:14.633Z,96.30
2022-10-11T11:11:45.569Z,95.70
2022-10-11T11:13:56.214Z,94.40
2022-10-11T11:16:11.938Z,96.30
2022-10-11T11:18:28.521Z,94.80
2022-10-11T11:20:52.062Z,94.50
2022-10-11T11:23:02.495Z,95.90
2022-10-11T11:25:14.769Z,92.00
2022-10-11T11:27:31.090Z,91.40
2022-10-11T11:29:49.831Z,87.80
2022-10-11T11:32:15.675Z,91.00
2022-10-11T11:34:26.139Z,91.60
2022-10-11T11:36:36.746Z,91.90
2022-10-11T11:38:44.827Z,92.50
2022-10-11T11:40:52.583Z,93.40
2022-10-11T11:43:00.058Z,94.30
2022-10-11T11:45:12.244Z,94.70
2022-10-11T11:47:21.406Z,94.70
2022-10-11T11:49:34.038Z,95.00
2022-10-11T11:51:41.172Z,94.60
2022-10-11T11:53:52.556Z,94.60
2022-10-11T11:56:00.055Z,94.80
2022-10-11T11:58:13.180Z,95.00
2022-10-11T12:00:19.113Z,95.20
2022-10-11T12:02:39.610Z,95.30
2022-10-11T12:04:46.509Z,95.70
2022-10-11T12:07:15.469Z,96.30
2022-10-11T12:09:22.483Z,96.60
2022-10-11T12:11:31.701Z,97.10
2022-10-11T12:13:42.531Z,97.30
2022-10-11T12:16:02.018Z,97.50
2022-10-11T12:18:14.857Z,97.30
2022-10-11T12:20:28.154Z,97.30
2022-10-11T12:22:40.609Z,96.70
2022-10-11T12:24:55.318Z,97.00
2022-10-11T12:27:01.367Z,97.10
2022-10-11T12:29:25.888Z,97.60
2022-10-11T12:31:32.511Z,97.70
2022-10-11T12:33:49.464Z,98.10
2022-10-11T12:36:04.175Z,97.40
2022-10-11T12:38:19.535Z,97.60
2022-10-11T12:40:36.578Z,97.20
2022-10-11T12:42:38.940Z,97.70
2022-10-11T12:44:47.185Z,98.20
2022-10-11T12:47:18.298Z,98.30
2022-10-11T12:49:51.252Z,97.90
2022-10-11T12:52:04.202Z,98.40
2022-10-11T12:54:49.338Z,97.80
2022-10-11T12:57:13.033Z,95.90
2022-10-11T12:59:21.849Z,95.80
2022-10-11T13:01:27.155Z,94.70
2022-10-11T13:03:33.557Z,94.00
2022-10-11T13:05:45.175Z,93.50
2022-10-11T13:07:52.039Z,92.40
2022-10-11T13:09:55.313Z,92.70
2022-10-11T13:12:02.866Z,93.50
2022-10-11T13:14:11.340Z,93.90
2022-10-11T13:16:16.967Z,94.10
2022-10-11T13:18:22.917Z,94.70
2022-10-11T13:20:28.077Z,94.80
2022-10-11T13:22:34.979Z,95.20
2022-10-11T13:24:42.631Z,95.50
2022-10-11T13:26:47.024Z,95.10
2022-10-11T13:28:49.464Z,95.50
2022-10-11T13:30:56.256Z,96.10
2022-10-11T13:32:59.878Z,96.40
2022-10-11T13:35:04.762Z,96.60
2022-10-11T13:37:15.320Z,96.70
2022-10-11T13:39:30.998Z,97.00
2022-10-11T13:41:36.496Z,96.70
2022-10-11T13:43:40.749Z,97.00
2022-10-11T13:45:43.173Z,97.20
2022-10-11T13:47:47.275Z,97.10
2022-10-11T13:50:01.990Z,97.00
2022-10-11T13:52:07.186Z,97.00
2022-10-11T13:54:13.766Z,97.30
2022-10-11T13:56:19.733Z,97.70
2022-10-11T13:58:28.385Z,97.90
2022-10-11T14:00:33.796Z,97.80
2022-10-11T14:02:36.446Z,97.60
2022-10-11T14:04:40.034Z,98.00
2022-10-11T14:06:46.386Z,97.80
2022-10-11T14:08:51.661Z,97.60
2022-10-11T14:11:00.288Z,97.20
2022-10-11T14:13:07.953Z,97.00
2022-10-11T14:15:31.123Z,96.80
2022-10-11T14:17:42.665Z,95.90
2022-10-11T14:19:47.505Z,95.90
2022-10-11T14:21:52.921Z,95.50
2022-10-11T14:23:57.241Z,95.20
2022-10-11T14:25:59.453Z,95.10
2022-10-11T14:28:01.923Z,94.20
2022-10-11T14:32:34.640Z,93.30
2022-10-11T14:34:37.451Z,92.80
2022-10-11T14:36:39.796Z,92.60
2022-10-11T14:38:42.152Z,92.10
2022-10-11T14:40:44.296Z,92.60
2022-10-11T14:42:49.883Z,92.50
2022-10-11T14:44:52.315Z,92.50
2022-10-11T14:46:55.174Z,93.10
2022-10-11T14:49:00.111Z,93.30
2022-10-11T14:51:14.307Z,94.00
2022-10-11T14:53:16.670Z,94.10
2022-10-11T14:55:18.912Z,94.30
2022-10-11T14:57:21.410Z,94.30
2022-10-11T14:59:34.207Z,94.40
2022-10-11T15:01:36.564Z,94.50
2022-10-11T15:03:38.841Z,94.60
2022-10-11T15:05:43.833Z,94.90
2022-10-11T15:07:46.170Z,95.30
2022-10-11T15:09:48.496Z,95.60
2022-10-11T15:11:54.232Z,95.90
2022-10-11T15:13:56.430Z,96.10
2022-10-11T15:15:58.647Z,96.30
2022-10-11T15:18:02.007Z,96.60
2022-10-11T15:20:07.722Z,96.70
2022-10-11T15:22:12.988Z,96.80
2022-10-11T15:24:15.551Z,97.00
2022-10-11T15:26:20.675Z,97.10
2022-10-11T15:28:29.386Z,97.40
2022-10-11T15:30:41.146Z,97.60
2022-10-11T15:32:45.679Z,97.60
2022-10-11T15:34:48.306Z,97.80
2022-10-11T15:36:51.303Z,98.00
2022-10-11T15:38:59.127Z,98.00
2022-10-11T15:41:04.197Z,98.00
2022-10-11T15:43:06.552Z,98.20
2022-10-11T15:45:09.758Z,98.20
2022-10-11T15:47:12.497Z,98.30
2022-10-11T15:49:19.710Z,98.70
2022-10-11T15:51:22.018Z,99.40
2022-10-11T15:53:30.102Z,99.50
2022-10-11T15:55:40.479Z,99.40
2022-10-11T15:57:45.812Z,99.50
2022-10-11T15:59:48.109Z,99.70
2022-10-11T16:01:50.412Z,99.40
2022-10-11T16:03:55.117Z,99.40
2022-10-11T16:06:04.914Z,99.60
2022-10-11T16:08:08.364Z,99.70
2022-10-11T16:10:10.935Z,99.80
2022-10-11T16:12:15.975Z,99.80
2022-10-11T16:14:20.347Z,99.80
2022-10-11T16:16:22.615Z,99.80
2022-10-11T16:18:24.882Z,99.90
2022-10-11T16:20:27.984Z,99.90
2022-10-11T16:22:36.816Z,99.90
2022-10-11T16:24:39.498Z,99.90
2022-10-11T16:26:41.904Z,99.90
2022-10-11T16:28:48.033Z,99.90
2022-10-11T16:30:50.725Z,99.90
2022-10-11T16:32:53.214Z,99.90
2022-10-11T16:34:55.431Z,99.90
2022-10-11T16:36:57.761Z,99.90
2022-10-11T16:39:02.312Z,99.90
2022-10-11T16:41:06.138Z,99.90
2022-10-11T16:43:08.471Z,99.90
2022-10-11T16:45:15.264Z,99.90
2022-10-11T16:47:19.946Z,99.90
2022-10-11T16:49:27.271Z,99.90
2022-10-11T16:51:29.571Z,99.90
2022-10-11T16:53:33.711Z,99.90
2022-10-11T16:55:39.174Z,99.90
2022-10-11T16:57:44.458Z,99.90
2022-10-11T16:59:47.167Z,99.90
2022-10-11T17:01:52.063Z,99.90
2022-10-11T17:03:55.819Z,99.90
2022-10-11T17:05:58.121Z,99.90
2022-10-11T17:08:01.852Z,99.90
2022-10-11T17:10:05.215Z,99.90
2022-10-11T17:12:08.648Z,99.90
2022-10-11T17:14:12.549Z,99.90
2022-10-11T17:16:16.081Z,99.90
2022-10-11T17:18:21.053Z,99.90
2022-10-11T17:20:23.446Z,99.90
2022-10-11T17:22:27.403Z,99.90
2022-10-11T17:24:29.647Z,99.90
2022-10-11T17:26:32.837Z,99.90
2022-10-11T17:28:36.796Z,99.90
2022-10-11T17:30:41.828Z,99.90
2022-10-11T17:32:44.108Z,99.90
2022-10-11T17:34:49.232Z,99.90
2022-10-11T17:36:54.304Z,99.90
2022-10-11T17:38:56.886Z,99.90
2022-10-11T17:41:00.588Z,99.90
2022-10-11T17:43:03.151Z,99.90
2022-10-11T17:45:07.910Z,99.90
2022-10-11T17:47:10.249Z,99.90
2022-10-11T17:49:13.205Z,99.90
2022-10-11T17:51:19.714Z,99.90
2022-10-11T17:53:22.128Z,99.90
2022-10-11T17:55:24.600Z,99.90
2022-10-11T17:57:26.912Z,99.90
2022-10-11T17:59:30.681Z,99.90
2022-10-11T18:01:33.434Z,99.90
2022-10-11T18:03:36.441Z,99.90
2022-10-11T18:05:39.719Z,99.90
2022-10-11T18:07:44.639Z,99.90
2022-10-11T18:09:46.802Z,99.90
2022-10-11T18:11:49.715Z,99.90
2022-10-11T18:13:53.134Z,99.90
2022-10-11T18:15:55.483Z,99.90
2022-10-11T18:17:59.498Z,99.90
2022-10-11T18:20:01.844Z,99.90
2022-10-11T18:22:06.976Z,99.90
2022-10-11T18:24:16.071Z,99.90
2022-10-11T18:26:20.450Z,99.90
2022-10-11T18:28:22.765Z,99.90
2022-10-11T18:30:26.008Z,99.90
2022-10-11T18:32:28.467Z,99.90
2022-10-11T18:34:30.814Z,99.90
2022-10-11T18:36:33.658Z,99.90
2022-10-11T18:38:38.406Z,99.90
2022-10-11T18:40:47.061Z,99.90
2022-10-11T18:42:56.964Z,99.90
2022-10-11T18:44:59.269Z,99.90
2022-10-11T18:47:01.496Z,99.90
2022-10-11T18:49:04.231Z,99.90
2022-10-11T18:51:09.849Z,99.90
2022-10-11T18:53:12.381Z,99.90
2022-10-11T18:55:14.876Z,99.90
2022-10-11T18:57:19.966Z,99.90
2022-10-11T18:59:22.496Z,99.90
2022-10-11T19:01:27.498Z,99.90
2022-10-11T19:03:34.960Z,99.90
2022-10-11T19:05:39.371Z,99.90
2022-10-11T19:07:43.001Z,99.90
2022-10-11T19:09:47.082Z,99.90
2022-10-11T19:11:56.704Z,99.90
2022-10-11T19:14:06.392Z,99.90
2022-10-11T19:16:10.264Z,99.90
2022-10-11T19:18:20.572Z,99.90
2022-10-11T19:20:23.140Z,99.90
2022-10-11T19:22:25.644Z,99.90
2022-10-11T19:24:31.201Z,99.90
2022-10-11T19:26:36.242Z,99.90
2022-10-11T19:28:38.572Z,99.90
2022-10-11T19:30:45.297Z,99.90
2022-10-11T19:32:50.511Z,99.90
2022-10-11T19:34:53.284Z,99.90
2022-10-11T19:36:56.571Z,99.90
2022-10-11T19:38:59.792Z,99.90
2022-10-11T19:41:02.711Z,99.90
2022-10-11T19:43:05.626Z,99.90
2022-10-11T19:45:09.147Z,99.90
2022-10-11T19:47:17.137Z,99.90
2022-10-11T19:49:21.645Z,99.90
2022-10-11T19:51:25.604Z,99.90
2022-10-11T19:53:27.811Z,99.90
2022-10-11T19:55:30.353Z,99.90
2022-10-11T19:57:33.025Z,99.90
2022-10-11T19:59:35.535Z,99.90
2022-10-11T20:01:38.237Z,99.90
2022-10-11T20:03:44.433Z,99.90
2022-10-11T20:05:46.645Z,99.90
2022-10-11T20:07:49.087Z,99.90
2022-10-11T20:09:54.698Z,99.90
2022-10-11T20:12:04.867Z,99.90
2022-10-11T20:14:07.174Z,99.90
2022-10-11T20:16:11.693Z,99.90
2022-10-11T20:18:16.346Z,99.90
2022-10-11T20:20:22.381Z,99.90
2022-10-11T20:22:27.611Z,99.90
2022-10-11T20:24:33.630Z,99.90
2022-10-11T20:26:36.317Z,99.90
2022-10-11T20:28:41.406Z,99.90
2022-10-11T20:30:43.726Z,99.90
2022-10-11T20:32:46.043Z,99.90
2022-10-11T20:34:48.337Z,99.90
2022-10-11T20:36:53.155Z,99.90
2022-10-11T20:38:56.283Z,99.90
2022-10-11T20:40:58.776Z,99.90
2022-10-11T20:43:01.006Z,99.90
2022-10-11T20:45:03.558Z,99.90
2022-10-11T20:47:05.728Z,99.90
2022-10-11T20:49:10.449Z,99.90
2022-10-11T20:53:35.110Z,99.90
2022-10-11T20:55:37.380Z,99.90
2022-10-11T20:57:39.590Z,99.90
2022-10-11T20:59:41.906Z,99.90
2022-10-11T21:01:44.161Z,99.90
2022-10-11T21:03:46.841Z,99.90
2022-10-11T21:05:56.935Z,99.90
2022-10-11T21:07:59.237Z,99.90
2022-10-11T21:10:04.325Z,99.90
2022-10-11T21:12:06.941Z,99.90
2022-10-11T21:14:09.343Z,99.90
2022-10-11T21:16:14.612Z,99.90
2022-10-11T21:18:16.958Z,99.90
2022-10-11T21:20:24.492Z,99.90
2022-10-11T21:22:27.134Z,99.90
2022-10-11T21:24:30.172Z,99.90
2022-10-11T21:26:35.875Z,99.90
2022-10-11T21:28:38.570Z,99.90
2022-10-11T21:30:43.013Z,99.90
2022-10-11T21:32:48.095Z,99.90
2022-10-11T21:34:53.695Z,99.90
2022-10-11T21:36:56.092Z,99.90
2022-10-11T21:38:58.727Z,99.90
2022-10-11T21:41:02.861Z,99.90
2022-10-11T21:43:07.749Z,99.90
2022-10-11T21:45:10.001Z,99.90
2022-10-11T21:47:12.526Z,99.90
2022-10-11T21:49:14.838Z,99.90
2022-10-11T21:51:21.802Z,99.90
2022-10-11T21:53:24.215Z,99.90
2022-10-11T21:55:27.985Z,99.90
2022-10-11T21:57:30.253Z,99.90
2022-10-11T21:59:35.173Z,99.90
2022-10-11T22:01:37.610Z,99.90
2022-10-11T22:03:39.850Z,99.90
2022-10-11T22:05:44.441Z,99.90
2022-10-11T22:07:46.800Z,99.90
2022-10-11T22:09:49.216Z,99.90
2022-10-11T22:11:51.548Z,99.90
2022-10-11T22:13:53.846Z,99.90
2022-10-11T22:16:03.143Z,99.90
2022-10-11T22:18:06.502Z,99.90
2022-10-11T22:20:09.714Z,99.90
2022-10-11T22:22:17.607Z,99.90
2022-10-11T22:24:19.883Z,99.90
2022-10-11T22:26:25.084Z,99.90
2022-10-11T22:28:27.436Z,99.90
2022-10-11T22:30:29.891Z,99.90
2022-10-11T22:32:37.739Z,99.90
2022-10-11T22:34:40.167Z,99.90
2022-10-11T22:36:45.544Z,99.90
2022-10-11T22:38:47.924Z,99.90
2022-10-11T22:40:50.252Z,99.90
2022-10-11T22:42:52.536Z,99.90
2022-10-11T22:44:54.876Z,99.90
2022-10-11T22:46:57.195Z,99.90
2022-10-11T22:49:02.251Z,99.90
2022-10-11T22:51:04.643Z,99.90
2022-10-11T22:53:07.459Z,99.90
2022-10-11T22:55:09.956Z,99.90
2022-10-11T22:57:12.195Z,99.90
2022-10-11T22:59:17.330Z,99.90
2022-10-11T23:01:19.589Z,99.90
2022-10-11T23:03:26.556Z,99.90
2022-10-11T23:05:31.459Z,99.90
2022-10-11T23:07:36.451Z,99.90
2022-10-11T23:09:38.903Z,99.90
2022-10-11T23:11:41.233Z,99.90
2022-10-11T23:13:43.643Z,99.90
2022-10-11T23:15:46.104Z,99.90
2022-10-11T23:17:48.410Z,99.90
2022-10-11T23:19:50.734Z,99.90
2022-10-11T23:21:55.571Z,99.90
2022-10-11T23:23:57.783Z,99.90
2022-10-11T23:26:06.013Z,99.90
2022-10-11T23:28:10.216Z,99.90
2022-10-11T23:30:13.813Z,99.90
2022-10-11T23:32:16.128Z,99.90
2022-10-11T23:34:18.398Z,99.90
2022-10-11T23:36:22.380Z,99.90
2022-10-11T23:38:27.309Z,99.90
2022-10-11T23:40:29.596Z,99.90
2022-10-11T23:42:31.941Z,99.90
2022-10-11T23:44:34.187Z,99.90
2022-10-11T23:46:36.447Z,99.90
2022-10-11T23:48:38.885Z,99.90
2022-10-11T23:50:42.109Z,99.90
2022-10-11T23:52:44.396Z,99.90
2022-10-11T23:54:49.299Z,99.90
2022-10-11T23:56:51.511Z,99.90
2022-10-11T23:58:53.862Z,99.90
